sensor_id;sensor_type;location;lat;lon;timestamp;temperature;humidity
36856;DHT22;22788;51.434;6.786;2023-04-25T00:01:02;10.20;99.90
36856;DHT22;22788;51.434;6.786;2023-04-25T00:03:28;10.10;99.90
36856;DHT22;22788;51.434;6.786;2023-04-25T00:05:54;10.10;99.90
36856;DHT22;22788;51.434;6.786;2023-04-25T00:08:19;10.20;99.90
36856;DHT22;22788;51.434;6.786;2023-04-25T00:10:45;10.20;99.90
36856;DHT22;22788;51.434;6.786;2023-04-25T00:13:10;10.20;99.90
36856;DHT22;22788;51.434;6.786;2023-04-25T00:15:36;10.40;99.90
36856;DHT22;22788;51.434;6.786;2023-04-25T00:18:03;10.30;99.90
36856;DHT22;22788;51.434;6.786;2023-04-25T00:20:29;10.30;99.90
36856;DHT22;22788;51.434;6.786;2023-04-25T00:22:55;10.30;99.90
36856;DHT22;22788;51.434;6.786;2023-04-25T00:25:20;10.20;99.90
36856;DHT22;22788;51.434;6.786;2023-04-25T00:27:46;10.00;99.90
36856;DHT22;22788;51.434;6.786;2023-04-25T00:30:13;10.00;99.90
36856;DHT22;22788;51.434;6.786;2023-04-25T00:32:38;10.00;99.90
36856;DHT22;22788;51.434;6.786;2023-04-25T00:35:07;10.20;99.90
36856;DHT22;22788;51.434;6.786;2023-04-25T00:37:32;10.30;99.90
36856;DHT22;22788;51.434;6.786;2023-04-25T00:39:58;10.00;99.90
36856;DHT22;22788;51.434;6.786;2023-04-25T00:42:24;9.90;99.90
36856;DHT22;22788;51.434;6.786;2023-04-25T00:44:50;10.00;99.90
36856;DHT22;22788;51.434;6.786;2023-04-25T00:47:17;9.80;99.90
36856;DHT22;22788;51.434;6.786;2023-04-25T00:49:43;9.90;99.90
36856;DHT22;22788;51.434;6.786;2023-04-25T00:52:10;10.00;99.90
36856;DHT22;22788;51.434;6.786;2023-04-25T00:54:36;10.00;99.90
36856;DHT22;22788;51.434;6.786;2023-04-25T00:57:02;10.20;99.90
36856;DHT22;22788;51.434;6.786;2023-04-25T00:59:28;10.20;99.90
36856;DHT22;22788;51.434;6.786;2023-04-25T01:01:54;9.90;99.90
36856;DHT22;22788;51.434;6.786;2023-04-25T01:04:19;9.90;99.90
36856;DHT22;22788;51.434;6.786;2023-04-25T01:06:45;10.10;99.90
36856;DHT22;22788;51.434;6.786;2023-04-25T01:09:12;10.10;99.90
36856;DHT22;22788;51.434;6.786;2023-04-25T01:11:38;10.10;99.90
36856;DHT22;22788;51.434;6.786;2023-04-25T01:14:04;10.00;99.90
36856;DHT22;22788;51.434;6.786;2023-04-25T01:16:30;9.80;99.90
36856;DHT22;22788;51.434;6.786;2023-04-25T01:18:56;9.80;99.90
36856;DHT22;22788;51.434;6.786;2023-04-25T01:21:24;9.90;99.90
36856;DHT22;22788;51.434;6.786;2023-04-25T01:23:50;9.90;99.90
36856;DHT22;22788;51.434;6.786;2023-04-25T01:26:15;9.80;99.90
36856;DHT22;22788;51.434;6.786;2023-04-25T01:28:41;9.80;99.90
36856;DHT22;22788;51.434;6.786;2023-04-25T01:31:07;9.90;99.90
36856;DHT22;22788;51.434;6.786;2023-04-25T01:33:33;9.90;99.90
36856;DHT22;22788;51.434;6.786;2023-04-25T01:35:59;9.90;99.90
36856;DHT22;22788;51.434;6.786;2023-04-25T01:38:26;9.90;99.90
36856;DHT22;22788;51.434;6.786;2023-04-25T01:40:52;9.90;99.90
36856;DHT22;22788;51.434;6.786;2023-04-25T01:43:19;9.80;99.90
36856;DHT22;22788;51.434;6.786;2023-04-25T01:45:44;9.80;99.90
36856;DHT22;22788;51.434;6.786;2023-04-25T01:48:12;9.80;99.90
36856;DHT22;22788;51.434;6.786;2023-04-25T01:50:38;10.00;99.90
36856;DHT22;22788;51.434;6.786;2023-04-25T01:53:04;10.10;99.90
36856;DHT22;22788;51.434;6.786;2023-04-25T01:55:31;10.00;99.90
36856;DHT22;22788;51.434;6.786;2023-04-25T01:57:57;9.80;99.90
36856;DHT22;22788;51.434;6.786;2023-04-25T02:00:23;9.80;99.90
36856;DHT22;22788;51.434;6.786;2023-04-25T02:02:48;9.80;99.90
36856;DHT22;22788;51.434;6.786;2023-04-25T02:05:14;9.80;99.90
36856;DHT22;22788;51.434;6.786;2023-04-25T02:07:40;10.00;99.90
36856;DHT22;22788;51.434;6.786;2023-04-25T02:10:06;9.90;99.90
36856;DHT22;22788;51.434;6.786;2023-04-25T02:12:33;9.90;99.90
36856;DHT22;22788;51.434;6.786;2023-04-25T02:14:59;9.90;99.90
36856;DHT22;22788;51.434;6.786;2023-04-25T02:17:24;9.90;99.90
36856;DHT22;22788;51.434;6.786;2023-04-25T02:19:50;9.80;99.90
36856;DHT22;22788;51.434;6.786;2023-04-25T02:22:15;9.80;99.90
36856;DHT22;22788;51.434;6.786;2023-04-25T02:24:41;9.90;99.90
36856;DHT22;22788;51.434;6.786;2023-04-25T02:27:07;9.90;99.90
36856;DHT22;22788;51.434;6.786;2023-04-25T02:29:34;10.00;99.90
36856;DHT22;22788;51.434;6.786;2023-04-25T02:32:00;9.90;99.90
36856;DHT22;22788;51.434;6.786;2023-04-25T02:34:25;9.70;99.90
36856;DHT22;22788;51.434;6.786;2023-04-25T02:36:51;9.80;99.90
36856;DHT22;22788;51.434;6.786;2023-04-25T02:39:17;9.90;99.90
36856;DHT22;22788;51.434;6.786;2023-04-25T02:41:42;9.90;99.90
36856;DHT22;22788;51.434;6.786;2023-04-25T02:44:08;9.80;99.90
36856;DHT22;22788;51.434;6.786;2023-04-25T02:46:35;9.90;99.90
36856;DHT22;22788;51.434;6.786;2023-04-25T02:49:01;9.80;99.90
36856;DHT22;22788;51.434;6.786;2023-04-25T02:51:26;9.60;99.90
36856;DHT22;22788;51.434;6.786;2023-04-25T02:53:52;9.50;99.90
36856;DHT22;22788;51.434;6.786;2023-04-25T02:56:17;9.60;99.90
36856;DHT22;22788;51.434;6.786;2023-04-25T02:58:43;9.60;99.90
36856;DHT22;22788;51.434;6.786;2023-04-25T03:01:09;9.60;99.90
36856;DHT22;22788;51.434;6.786;2023-04-25T03:03:36;9.60;99.90
36856;DHT22;22788;51.434;6.786;2023-04-25T03:06:02;9.60;99.90
36856;DHT22;22788;51.434;6.786;2023-04-25T03:08:27;9.50;99.90
36856;DHT22;22788;51.434;6.786;2023-04-25T03:10:53;9.50;99.90
36856;DHT22;22788;51.434;6.786;2023-04-25T03:13:19;9.50;99.90
36856;DHT22;22788;51.434;6.786;2023-04-25T03:15:44;9.50;99.90
36856;DHT22;22788;51.434;6.786;2023-04-25T03:18:10;9.50;99.90
36856;DHT22;22788;51.434;6.786;2023-04-25T03:20:37;9.70;99.90
36856;DHT22;22788;51.434;6.786;2023-04-25T03:23:02;9.60;99.90
36856;DHT22;22788;51.434;6.786;2023-04-25T03:25:28;9.60;99.90
36856;DHT22;22788;51.434;6.786;2023-04-25T03:27:54;9.70;99.90
36856;DHT22;22788;51.434;6.786;2023-04-25T03:30:19;9.70;99.90
36856;DHT22;22788;51.434;6.786;2023-04-25T03:32:45;9.80;99.90
36856;DHT22;22788;51.434;6.786;2023-04-25T03:35:10;9.80;99.90
36856;DHT22;22788;51.434;6.786;2023-04-25T03:37:37;9.60;99.90
36856;DHT22;22788;51.434;6.786;2023-04-25T03:40:04;9.50;99.90
36856;DHT22;22788;51.434;6.786;2023-04-25T03:42:30;9.40;99.90
36856;DHT22;22788;51.434;6.786;2023-04-25T03:44:55;9.40;99.90
36856;DHT22;22788;51.434;6.786;2023-04-25T03:47:21;9.60;99.90
36856;DHT22;22788;51.434;6.786;2023-04-25T03:49:46;9.50;99.90
36856;DHT22;22788;51.434;6.786;2023-04-25T03:52:12;9.50;99.90
36856;DHT22;22788;51.434;6.786;2023-04-25T03:54:39;9.60;99.90
36856;DHT22;22788;51.434;6.786;2023-04-25T03:57:04;9.60;99.90
36856;DHT22;22788;51.434;6.786;2023-04-25T03:59:30;9.70;99.90
36856;DHT22;22788;51.434;6.786;2023-04-25T04:01:56;9.50;99.90
36856;DHT22;22788;51.434;6.786;2023-04-25T04:04:22;9.50;99.90
36856;DHT22;22788;51.434;6.786;2023-04-25T04:06:47;9.60;99.90
36856;DHT22;22788;51.434;6.786;2023-04-25T04:09:13;9.70;99.90
36856;DHT22;22788;51.434;6.786;2023-04-25T04:11:40;9.60;99.90
36856;DHT22;22788;51.434;6.786;2023-04-25T04:14:06;9.70;99.90
36856;DHT22;22788;51.434;6.786;2023-04-25T04:16:32;9.50;99.90
36856;DHT22;22788;51.434;6.786;2023-04-25T04:18:58;9.60;99.90
36856;DHT22;22788;51.434;6.786;2023-04-25T04:21:24;9.60;99.90
36856;DHT22;22788;51.434;6.786;2023-04-25T04:23:49;9.60;99.90
36856;DHT22;22788;51.434;6.786;2023-04-25T04:26:15;9.60;99.90
36856;DHT22;22788;51.434;6.786;2023-04-25T04:28:43;9.60;99.90
36856;DHT22;22788;51.434;6.786;2023-04-25T04:31:08;9.50;99.90
36856;DHT22;22788;51.434;6.786;2023-04-25T04:33:34;9.30;99.90
36856;DHT22;22788;51.434;6.786;2023-04-25T04:36:00;9.40;99.90
36856;DHT22;22788;51.434;6.786;2023-04-25T04:38:25;9.30;99.90
36856;DHT22;22788;51.434;6.786;2023-04-25T04:40:51;9.40;99.90
36856;DHT22;22788;51.434;6.786;2023-04-25T04:43:16;9.50;99.90
36856;DHT22;22788;51.434;6.786;2023-04-25T04:45:43;9.70;99.90
36856;DHT22;22788;51.434;6.786;2023-04-25T04:48:09;9.60;99.90
36856;DHT22;22788;51.434;6.786;2023-04-25T04:50:35;9.40;99.90
36856;DHT22;22788;51.434;6.786;2023-04-25T04:53:01;9.50;99.90
36856;DHT22;22788;51.434;6.786;2023-04-25T04:55:27;9.50;99.90
36856;DHT22;22788;51.434;6.786;2023-04-25T04:57:52;9.50;99.90
36856;DHT22;22788;51.434;6.786;2023-04-25T05:00:18;9.50;99.90
36856;DHT22;22788;51.434;6.786;2023-04-25T05:02:45;9.50;99.90
36856;DHT22;22788;51.434;6.786;2023-04-25T05:05:11;9.40;99.90
36856;DHT22;22788;51.434;6.786;2023-04-25T05:07:37;9.20;99.90
36856;DHT22;22788;51.434;6.786;2023-04-25T05:10:03;9.40;99.90
36856;DHT22;22788;51.434;6.786;2023-04-25T05:12:29;9.40;99.90
36856;DHT22;22788;51.434;6.786;2023-04-25T05:14:54;9.30;99.90
36856;DHT22;22788;51.434;6.786;2023-04-25T05:17:20;9.30;99.90
36856;DHT22;22788;51.434;6.786;2023-04-25T05:19:47;9.20;99.90
36856;DHT22;22788;51.434;6.786;2023-04-25T05:22:13;9.10;99.90
36856;DHT22;22788;51.434;6.786;2023-04-25T05:24:38;9.20;99.90
36856;DHT22;22788;51.434;6.786;2023-04-25T05:27:04;9.30;99.90
36856;DHT22;22788;51.434;6.786;2023-04-25T05:29:30;9.40;99.90
36856;DHT22;22788;51.434;6.786;2023-04-25T05:31:55;9.40;99.90
36856;DHT22;22788;51.434;6.786;2023-04-25T05:34:21;9.20;99.90
36856;DHT22;22788;51.434;6.786;2023-04-25T05:36:48;9.20;99.90
36856;DHT22;22788;51.434;6.786;2023-04-25T05:39:13;9.20;99.90
36856;DHT22;22788;51.434;6.786;2023-04-25T05:41:39;9.30;99.90
36856;DHT22;22788;51.434;6.786;2023-04-25T05:44:05;9.20;99.90
36856;DHT22;22788;51.434;6.786;2023-04-25T05:46:30;9.20;99.90
36856;DHT22;22788;51.434;6.786;2023-04-25T05:48:56;9.10;99.90
36856;DHT22;22788;51.434;6.786;2023-04-25T05:51:22;9.20;99.90
36856;DHT22;22788;51.434;6.786;2023-04-25T05:53:49;9.20;99.90
36856;DHT22;22788;51.434;6.786;2023-04-25T05:56:14;9.20;99.90
36856;DHT22;22788;51.434;6.786;2023-04-25T05:58:40;9.20;99.90
36856;DHT22;22788;51.434;6.786;2023-04-25T06:01:06;9.20;99.90
36856;DHT22;22788;51.434;6.786;2023-04-25T06:03:31;9.20;99.90
36856;DHT22;22788;51.434;6.786;2023-04-25T06:05:57;9.30;99.90
36856;DHT22;22788;51.434;6.786;2023-04-25T06:08:22;9.10;99.90
36856;DHT22;22788;51.434;6.786;2023-04-25T06:10:49;9.20;99.90
36856;DHT22;22788;51.434;6.786;2023-04-25T06:13:15;9.40;99.90
36856;DHT22;22788;51.434;6.786;2023-04-25T06:15:40;9.20;99.90
36856;DHT22;22788;51.434;6.786;2023-04-25T06:18:06;9.10;99.90
36856;DHT22;22788;51.434;6.786;2023-04-25T06:20:32;9.20;99.90
36856;DHT22;22788;51.434;6.786;2023-04-25T06:22:58;9.20;99.90
36856;DHT22;22788;51.434;6.786;2023-04-25T06:25:23;9.20;99.90
36856;DHT22;22788;51.434;6.786;2023-04-25T06:27:50;9.40;99.90
36856;DHT22;22788;51.434;6.786;2023-04-25T06:30:16;9.30;99.90
36856;DHT22;22788;51.434;6.786;2023-04-25T06:32:41;9.10;99.90
36856;DHT22;22788;51.434;6.786;2023-04-25T06:35:08;9.00;99.90
36856;DHT22;22788;51.434;6.786;2023-04-25T06:37:33;9.00;99.90
36856;DHT22;22788;51.434;6.786;2023-04-25T06:39:59;9.10;99.90
36856;DHT22;22788;51.434;6.786;2023-04-25T06:42:25;9.10;99.90
36856;DHT22;22788;51.434;6.786;2023-04-25T06:44:52;9.10;99.90
36856;DHT22;22788;51.434;6.786;2023-04-25T06:47:17;9.20;99.90
36856;DHT22;22788;51.434;6.786;2023-04-25T06:49:43;8.90;99.90
36856;DHT22;22788;51.434;6.786;2023-04-25T06:52:08;8.90;99.90
36856;DHT22;22788;51.434;6.786;2023-04-25T06:54:34;8.70;99.90
36856;DHT22;22788;51.434;6.786;2023-04-25T06:57:00;8.70;99.90
36856;DHT22;22788;51.434;6.786;2023-04-25T06:59:25;8.80;99.90
36856;DHT22;22788;51.434;6.786;2023-04-25T07:01:52;8.80;99.90
36856;DHT22;22788;51.434;6.786;2023-04-25T07:04:18;8.90;99.90
36856;DHT22;22788;51.434;6.786;2023-04-25T07:06:44;9.10;99.90
36856;DHT22;22788;51.434;6.786;2023-04-25T07:09:09;9.00;99.90
36856;DHT22;22788;51.434;6.786;2023-04-25T07:11:35;9.00;99.90
36856;DHT22;22788;51.434;6.786;2023-04-25T07:14:01;9.00;99.90
36856;DHT22;22788;51.434;6.786;2023-04-25T07:16:26;8.80;99.90
36856;DHT22;22788;51.434;6.786;2023-04-25T07:18:53;8.80;99.90
36856;DHT22;22788;51.434;6.786;2023-04-25T07:21:19;8.80;99.90
36856;DHT22;22788;51.434;6.786;2023-04-25T07:23:44;8.90;99.90
36856;DHT22;22788;51.434;6.786;2023-04-25T07:26:10;8.90;99.90
36856;DHT22;22788;51.434;6.786;2023-04-25T07:28:35;9.00;99.90
36856;DHT22;22788;51.434;6.786;2023-04-25T07:31:01;9.20;99.90
36856;DHT22;22788;51.434;6.786;2023-04-25T07:33:27;9.40;99.90
36856;DHT22;22788;51.434;6.786;2023-04-25T07:35:54;9.50;99.90
36856;DHT22;22788;51.434;6.786;2023-04-25T07:38:20;9.60;99.90
36856;DHT22;22788;51.434;6.786;2023-04-25T07:40:46;9.50;99.90
36856;DHT22;22788;51.434;6.786;2023-04-25T07:43:12;9.50;99.90
36856;DHT22;22788;51.434;6.786;2023-04-25T07:45:37;9.50;99.90
36856;DHT22;22788;51.434;6.786;2023-04-25T07:48:03;9.50;99.90
36856;DHT22;22788;51.434;6.786;2023-04-25T07:50:29;9.40;99.90
36856;DHT22;22788;51.434;6.786;2023-04-25T07:52:56;9.30;99.90
36856;DHT22;22788;51.434;6.786;2023-04-25T07:55:21;9.30;99.90
36856;DHT22;22788;51.434;6.786;2023-04-25T07:57:47;9.40;99.90
36856;DHT22;22788;51.434;6.786;2023-04-25T08:00:14;9.30;99.90
36856;DHT22;22788;51.434;6.786;2023-04-25T08:02:39;9.30;99.90
36856;DHT22;22788;51.434;6.786;2023-04-25T08:05:05;9.30;99.90
36856;DHT22;22788;51.434;6.786;2023-04-25T08:07:31;9.40;99.90
36856;DHT22;22788;51.434;6.786;2023-04-25T08:09:58;9.50;99.90
36856;DHT22;22788;51.434;6.786;2023-04-25T08:12:23;9.50;99.90
36856;DHT22;22788;51.434;6.786;2023-04-25T08:14:49;9.40;99.90
36856;DHT22;22788;51.434;6.786;2023-04-25T08:17:14;9.40;99.90
36856;DHT22;22788;51.434;6.786;2023-04-25T08:19:40;9.40;99.90
36856;DHT22;22788;51.434;6.786;2023-04-25T08:22:06;9.50;99.90
36856;DHT22;22788;51.434;6.786;2023-04-25T08:24:31;9.60;99.90
36856;DHT22;22788;51.434;6.786;2023-04-25T08:26:58;9.70;99.90
36856;DHT22;22788;51.434;6.786;2023-04-25T08:29:24;9.70;99.90
36856;DHT22;22788;51.434;6.786;2023-04-25T08:31:49;9.70;99.90
36856;DHT22;22788;51.434;6.786;2023-04-25T08:34:15;9.70;99.90
36856;DHT22;22788;51.434;6.786;2023-04-25T08:36:41;9.70;99.90
36856;DHT22;22788;51.434;6.786;2023-04-25T08:39:06;9.60;99.90
36856;DHT22;22788;51.434;6.786;2023-04-25T08:41:32;9.80;99.90
36856;DHT22;22788;51.434;6.786;2023-04-25T08:44:01;9.90;99.90
36856;DHT22;22788;51.434;6.786;2023-04-25T08:46:28;9.90;99.90
36856;DHT22;22788;51.434;6.786;2023-04-25T08:49:00;9.70;99.90
36856;DHT22;22788;51.434;6.786;2023-04-25T08:51:27;9.70;99.90
36856;DHT22;22788;51.434;6.786;2023-04-25T08:53:56;9.60;99.90
36856;DHT22;22788;51.434;6.786;2023-04-25T08:56:27;9.70;99.90
36856;DHT22;22788;51.434;6.786;2023-04-25T08:58:52;9.60;99.90
36856;DHT22;22788;51.434;6.786;2023-04-25T09:01:22;9.50;99.90
36856;DHT22;22788;51.434;6.786;2023-04-25T09:03:47;9.50;99.90
36856;DHT22;22788;51.434;6.786;2023-04-25T09:06:13;9.50;99.90
36856;DHT22;22788;51.434;6.786;2023-04-25T09:08:39;9.50;99.90
36856;DHT22;22788;51.434;6.786;2023-04-25T09:11:05;9.70;99.90
36856;DHT22;22788;51.434;6.786;2023-04-25T09:13:30;9.70;99.90
36856;DHT22;22788;51.434;6.786;2023-04-25T09:15:57;9.80;99.90
36856;DHT22;22788;51.434;6.786;2023-04-25T09:18:25;9.90;99.90
36856;DHT22;22788;51.434;6.786;2023-04-25T09:20:52;10.00;99.90
36856;DHT22;22788;51.434;6.786;2023-04-25T09:23:18;10.10;99.90
36856;DHT22;22788;51.434;6.786;2023-04-25T09:25:47;10.10;99.90
36856;DHT22;22788;51.434;6.786;2023-04-25T09:28:12;10.10;99.90
36856;DHT22;22788;51.434;6.786;2023-04-25T09:30:38;10.10;99.90
36856;DHT22;22788;51.434;6.786;2023-04-25T09:33:05;10.10;99.90
36856;DHT22;22788;51.434;6.786;2023-04-25T09:35:35;10.10;99.90
36856;DHT22;22788;51.434;6.786;2023-04-25T09:38:01;10.10;99.90
36856;DHT22;22788;51.434;6.786;2023-04-25T09:40:27;10.10;99.90
36856;DHT22;22788;51.434;6.786;2023-04-25T09:42:52;10.10;99.90
36856;DHT22;22788;51.434;6.786;2023-04-25T09:45:18;10.20;99.90
36856;DHT22;22788;51.434;6.786;2023-04-25T09:47:43;10.20;99.90
36856;DHT22;22788;51.434;6.786;2023-04-25T09:50:14;10.20;99.90
36856;DHT22;22788;51.434;6.786;2023-04-25T09:52:41;10.20;99.90
36856;DHT22;22788;51.434;6.786;2023-04-25T09:55:07;10.30;99.90
36856;DHT22;22788;51.434;6.786;2023-04-25T09:57:33;10.30;99.90
36856;DHT22;22788;51.434;6.786;2023-04-25T10:00:01;10.30;98.60
36856;DHT22;22788;51.434;6.786;2023-04-25T10:02:27;10.20;99.60
36856;DHT22;22788;51.434;6.786;2023-04-25T10:04:54;10.30;99.90
36856;DHT22;22788;51.434;6.786;2023-04-25T10:07:21;10.30;99.10
36856;DHT22;22788;51.434;6.786;2023-04-25T10:09:49;10.30;98.60
36856;DHT22;22788;51.434;6.786;2023-04-25T10:12:14;10.40;99.90
36856;DHT22;22788;51.434;6.786;2023-04-25T10:14:42;10.50;99.90
36856;DHT22;22788;51.434;6.786;2023-04-25T10:17:10;10.50;98.20
36856;DHT22;22788;51.434;6.786;2023-04-25T10:19:36;10.50;99.00
36856;DHT22;22788;51.434;6.786;2023-04-25T10:22:05;10.50;99.20
36856;DHT22;22788;51.434;6.786;2023-04-25T10:24:32;10.60;99.90
36856;DHT22;22788;51.434;6.786;2023-04-25T10:26:59;10.50;98.40
36856;DHT22;22788;51.434;6.786;2023-04-25T10:29:26;10.50;99.90
36856;DHT22;22788;51.434;6.786;2023-04-25T10:31:51;10.60;99.60
36856;DHT22;22788;51.434;6.786;2023-04-25T10:34:17;10.70;99.90
36856;DHT22;22788;51.434;6.786;2023-04-25T10:36:49;10.80;98.50
36856;DHT22;22788;51.434;6.786;2023-04-25T10:39:21;10.90;99.40
36856;DHT22;22788;51.434;6.786;2023-04-25T10:41:52;11.00;98.50
36856;DHT22;22788;51.434;6.786;2023-04-25T10:44:19;11.10;99.90
36856;DHT22;22788;51.434;6.786;2023-04-25T10:46:45;11.10;97.60
36856;DHT22;22788;51.434;6.786;2023-04-25T10:49:28;11.10;99.00
36856;DHT22;22788;51.434;6.786;2023-04-25T10:52:14;11.10;98.40
36856;DHT22;22788;51.434;6.786;2023-04-25T10:54:46;11.00;98.60
36856;DHT22;22788;51.434;6.786;2023-04-25T10:57:36;10.80;99.90
36856;DHT22;22788;51.434;6.786;2023-04-25T11:00:08;10.60;99.90
36856;DHT22;22788;51.434;6.786;2023-04-25T11:02:37;10.50;99.90
36856;DHT22;22788;51.434;6.786;2023-04-25T11:05:04;10.30;99.90
36856;DHT22;22788;51.434;6.786;2023-04-25T11:07:34;10.30;99.90
36856;DHT22;22788;51.434;6.786;2023-04-25T11:10:03;10.20;99.90
36856;DHT22;22788;51.434;6.786;2023-04-25T11:12:30;10.30;99.90
36856;DHT22;22788;51.434;6.786;2023-04-25T11:14:59;10.30;99.90
36856;DHT22;22788;51.434;6.786;2023-04-25T11:17:26;10.30;99.90
36856;DHT22;22788;51.434;6.786;2023-04-25T11:19:52;10.30;99.90
36856;DHT22;22788;51.434;6.786;2023-04-25T11:22:21;10.30;99.90
36856;DHT22;22788;51.434;6.786;2023-04-25T11:24:46;10.50;99.90
36856;DHT22;22788;51.434;6.786;2023-04-25T11:27:12;10.40;99.90
36856;DHT22;22788;51.434;6.786;2023-04-25T11:29:38;10.40;99.90
36856;DHT22;22788;51.434;6.786;2023-04-25T11:32:04;10.40;99.90
36856;DHT22;22788;51.434;6.786;2023-04-25T11:38:05;10.40;99.90
36856;DHT22;22788;51.434;6.786;2023-04-25T11:46:56;10.50;99.90
36856;DHT22;22788;51.434;6.786;2023-04-25T11:49:21;10.50;99.90
36856;DHT22;22788;51.434;6.786;2023-04-25T11:51:48;10.40;99.90
36856;DHT22;22788;51.434;6.786;2023-04-25T11:54:15;10.30;99.90
36856;DHT22;22788;51.434;6.786;2023-04-25T12:06:11;10.00;99.90
36856;DHT22;22788;51.434;6.786;2023-04-25T12:09:07;10.10;99.90
36856;DHT22;22788;51.434;6.786;2023-04-25T12:14:46;10.20;99.90
36856;DHT22;22788;51.434;6.786;2023-04-25T12:17:19;10.30;99.90
36856;DHT22;22788;51.434;6.786;2023-04-25T12:19:54;10.40;99.90
36856;DHT22;22788;51.434;6.786;2023-04-25T12:22:25;10.40;99.90
36856;DHT22;22788;51.434;6.786;2023-04-25T12:24:57;10.50;99.90
36856;DHT22;22788;51.434;6.786;2023-04-25T12:27:26;10.50;99.90
36856;DHT22;22788;51.434;6.786;2023-04-25T12:29:55;10.40;99.90
36856;DHT22;22788;51.434;6.786;2023-04-25T12:32:23;10.50;99.90
36856;DHT22;22788;51.434;6.786;2023-04-25T12:34:51;10.60;99.90
36856;DHT22;22788;51.434;6.786;2023-04-25T12:37:17;10.60;99.90
36856;DHT22;22788;51.434;6.786;2023-04-25T12:39:45;10.70;99.90
36856;DHT22;22788;51.434;6.786;2023-04-25T12:42:12;10.90;99.90
36856;DHT22;22788;51.434;6.786;2023-04-25T12:44:38;10.90;99.90
36856;DHT22;22788;51.434;6.786;2023-04-25T12:47:08;11.00;99.90
36856;DHT22;22788;51.434;6.786;2023-04-25T12:49:35;11.10;99.90
36856;DHT22;22788;51.434;6.786;2023-04-25T12:52:02;11.20;99.90
36856;DHT22;22788;51.434;6.786;2023-04-25T12:54:30;11.30;99.90
36856;DHT22;22788;51.434;6.786;2023-04-25T12:56:57;11.30;99.90
36856;DHT22;22788;51.434;6.786;2023-04-25T12:59:25;11.40;99.90
36856;DHT22;22788;51.434;6.786;2023-04-25T13:01:53;11.20;99.70
36856;DHT22;22788;51.434;6.786;2023-04-25T13:04:22;11.10;99.90
36856;DHT22;22788;51.434;6.786;2023-04-25T13:06:47;10.90;99.90
36856;DHT22;22788;51.434;6.786;2023-04-25T13:09:13;10.90;99.90
36856;DHT22;22788;51.434;6.786;2023-04-25T13:11:39;10.60;99.90
36856;DHT22;22788;51.434;6.786;2023-04-25T13:14:04;10.60;99.90
36856;DHT22;22788;51.434;6.786;2023-04-25T13:16:30;10.50;99.90
36856;DHT22;22788;51.434;6.786;2023-04-25T13:18:56;10.50;99.90
36856;DHT22;22788;51.434;6.786;2023-04-25T13:21:23;10.40;99.90
36856;DHT22;22788;51.434;6.786;2023-04-25T13:23:48;10.50;99.90
36856;DHT22;22788;51.434;6.786;2023-04-25T13:26:14;10.50;99.90
36856;DHT22;22788;51.434;6.786;2023-04-25T13:28:40;10.60;99.90
36856;DHT22;22788;51.434;6.786;2023-04-25T13:31:06;10.50;99.90
36856;DHT22;22788;51.434;6.786;2023-04-25T13:33:31;10.70;99.90
36856;DHT22;22788;51.434;6.786;2023-04-25T13:35:57;10.80;99.90
36856;DHT22;22788;51.434;6.786;2023-04-25T13:38:25;11.10;99.90
36856;DHT22;22788;51.434;6.786;2023-04-25T13:40:50;11.00;99.90
36856;DHT22;22788;51.434;6.786;2023-04-25T13:43:16;11.10;99.90
36856;DHT22;22788;51.434;6.786;2023-04-25T13:45:42;11.20;99.90
36856;DHT22;22788;51.434;6.786;2023-04-25T13:48:07;11.10;99.90
36856;DHT22;22788;51.434;6.786;2023-04-25T13:50:33;11.10;99.90
36856;DHT22;22788;51.434;6.786;2023-04-25T13:52:59;11.10;99.90
36856;DHT22;22788;51.434;6.786;2023-04-25T13:55:26;11.10;99.90
36856;DHT22;22788;51.434;6.786;2023-04-25T13:57:51;11.40;99.90
36856;DHT22;22788;51.434;6.786;2023-04-25T14:00:18;11.50;99.90
36856;DHT22;22788;51.434;6.786;2023-04-25T14:02:43;11.00;99.90
36856;DHT22;22788;51.434;6.786;2023-04-25T14:05:09;11.00;99.90
36856;DHT22;22788;51.434;6.786;2023-04-25T14:07:35;11.10;99.90
36856;DHT22;22788;51.434;6.786;2023-04-25T14:10:01;11.30;99.20
36856;DHT22;22788;51.434;6.786;2023-04-25T14:12:28;11.40;99.90
36856;DHT22;22788;51.434;6.786;2023-04-25T14:14:53;11.40;98.70
36856;DHT22;22788;51.434;6.786;2023-04-25T14:17:19;11.40;99.50
36856;DHT22;22788;51.434;6.786;2023-04-25T14:19:45;11.30;97.30
36856;DHT22;22788;51.434;6.786;2023-04-25T14:22:10;11.30;97.70
36856;DHT22;22788;51.434;6.786;2023-04-25T14:24:36;11.20;98.00
36856;DHT22;22788;51.434;6.786;2023-04-25T14:27:01;11.20;98.80
36856;DHT22;22788;51.434;6.786;2023-04-25T14:29:28;11.20;99.70
36856;DHT22;22788;51.434;6.786;2023-04-25T14:31:54;11.20;97.60
36856;DHT22;22788;51.434;6.786;2023-04-25T14:34:20;11.20;99.90
36856;DHT22;22788;51.434;6.786;2023-04-25T14:36:45;11.20;99.10
36856;DHT22;22788;51.434;6.786;2023-04-25T14:39:12;11.20;98.00
36856;DHT22;22788;51.434;6.786;2023-04-25T14:41:37;11.40;99.00
36856;DHT22;22788;51.434;6.786;2023-04-25T14:44:03;11.00;99.90
36856;DHT22;22788;51.434;6.786;2023-04-25T14:46:30;10.90;99.90
36856;DHT22;22788;51.434;6.786;2023-04-25T14:48:56;10.80;99.90
36856;DHT22;22788;51.434;6.786;2023-04-25T14:51:21;10.70;99.90
36856;DHT22;22788;51.434;6.786;2023-04-25T14:53:47;10.70;99.80
36856;DHT22;22788;51.434;6.786;2023-04-25T14:56:12;10.60;99.90
36856;DHT22;22788;51.434;6.786;2023-04-25T14:58:39;10.60;99.90
36856;DHT22;22788;51.434;6.786;2023-04-25T15:01:05;10.70;99.90
36856;DHT22;22788;51.434;6.786;2023-04-25T15:03:32;10.80;99.90
36856;DHT22;22788;51.434;6.786;2023-04-25T15:05:57;10.90;99.90
36856;DHT22;22788;51.434;6.786;2023-04-25T15:08:23;11.00;99.90
36856;DHT22;22788;51.434;6.786;2023-04-25T15:10:49;11.10;99.90
36856;DHT22;22788;51.434;6.786;2023-04-25T15:13:15;11.10;99.10
36856;DHT22;22788;51.434;6.786;2023-04-25T15:15:40;11.10;99.30
36856;DHT22;22788;51.434;6.786;2023-04-25T15:18:06;11.10;99.70
36856;DHT22;22788;51.434;6.786;2023-04-25T15:20:33;11.00;99.70
36856;DHT22;22788;51.434;6.786;2023-04-25T15:22:59;11.00;99.90
36856;DHT22;22788;51.434;6.786;2023-04-25T15:25:25;11.00;99.00
36856;DHT22;22788;51.434;6.786;2023-04-25T15:27:50;10.90;98.70
36856;DHT22;22788;51.434;6.786;2023-04-25T15:30:16;10.80;98.90
36856;DHT22;22788;51.434;6.786;2023-04-25T15:32:42;10.90;99.90
36856;DHT22;22788;51.434;6.786;2023-04-25T15:35:08;10.90;98.20
36856;DHT22;22788;51.434;6.786;2023-04-25T15:37:36;10.90;96.60
36856;DHT22;22788;51.434;6.786;2023-04-25T15:40:04;10.90;98.20
36856;DHT22;22788;51.434;6.786;2023-04-25T15:42:30;11.00;97.50
36856;DHT22;22788;51.434;6.786;2023-04-25T15:44:55;11.10;98.00
36856;DHT22;22788;51.434;6.786;2023-04-25T15:47:21;11.10;95.90
36856;DHT22;22788;51.434;6.786;2023-04-25T15:49:47;11.20;95.70
36856;DHT22;22788;51.434;6.786;2023-04-25T15:52:12;11.20;96.60
36856;DHT22;22788;51.434;6.786;2023-04-25T15:54:39;11.10;92.80
36856;DHT22;22788;51.434;6.786;2023-04-25T15:57:05;11.30;93.70